Terminal Aerodrome Forecast
Issued by NWS

Home | Current Version | Previous Version | Text Only | Print | Product List | Glossary On
Versions: 1 2 3 4 5 6 7 8 9 10 11 12 13 14 15 16 17 18 19
277
FTUS41 KALY 291742
TAFPSF
TAF
KPSF 291742Z 2918/3018 00000KT P6SM VCSH FEW035
     FM291900 01007KT P6SM SCT050 BKN100
     FM292200 35004KT P6SM SCT100 SCT250
     FM300600 00000KT 3/4SM BR SCT250
     FM301200 00000KT P6SM BKN250
     FM301600 33003KT P6SM SCT100 BKN200=

USA.gov is the U.S. government's official web portal to all federal, state and local government web resources and services.